sensor_id;sensor_type;location;lat;lon;timestamp;P1;durP1;ratioP1;P2;durP2;ratioP2
31808;SDS011;18379;48.208;-1.518;2023-06-24T00:03:19;54.03;;;50.57;;
31808;SDS011;18379;48.208;-1.518;2023-06-24T00:08:20;54.10;;;50.60;;
31808;SDS011;18379;48.208;-1.518;2023-06-24T00:13:46;54.30;;;50.70;;
31808;SDS011;18379;48.208;-1.518;2023-06-24T00:19:35;53.83;;;50.43;;
31808;SDS011;18379;48.208;-1.518;2023-06-24T00:25:01;54.17;;;50.63;;
31808;SDS011;18379;48.208;-1.518;2023-06-24T00:30:02;53.87;;;50.47;;
31808;SDS011;18379;48.208;-1.518;2023-06-24T00:35:03;53.77;;;50.47;;
31808;SDS011;18379;48.208;-1.518;2023-06-24T00:40:04;53.03;;;49.63;;
31808;SDS011;18379;48.208;-1.518;2023-06-24T00:45:05;53.43;;;50.07;;
31808;SDS011;18379;48.208;-1.518;2023-06-24T00:50:07;53.60;;;50.30;;
31808;SDS011;18379;48.208;-1.518;2023-06-24T00:55:12;53.03;;;49.57;;
31808;SDS011;18379;48.208;-1.518;2023-06-24T01:00:16;52.57;;;49.37;;
31808;SDS011;18379;48.208;-1.518;2023-06-24T01:05:21;52.57;;;49.27;;
31808;SDS011;18379;48.208;-1.518;2023-06-24T01:10:23;53.73;;;50.17;;
31808;SDS011;18379;48.208;-1.518;2023-06-24T01:15:26;53.03;;;49.73;;
31808;SDS011;18379;48.208;-1.518;2023-06-24T01:31:30;53.47;;;50.07;;
31808;SDS011;18379;48.208;-1.518;2023-06-24T01:42:06;52.50;;;49.23;;
31808;SDS011;18379;48.208;-1.518;2023-06-24T01:47:10;52.73;;;49.53;;
31808;SDS011;18379;48.208;-1.518;2023-06-24T01:52:12;54.10;;;50.60;;
31808;SDS011;18379;48.208;-1.518;2023-06-24T01:57:14;53.63;;;50.03;;
31808;SDS011;18379;48.208;-1.518;2023-06-24T02:02:17;53.37;;;49.97;;
31808;SDS011;18379;48.208;-1.518;2023-06-24T02:07:20;52.93;;;49.60;;
31808;SDS011;18379;48.208;-1.518;2023-06-24T02:12:22;52.80;;;49.40;;
31808;SDS011;18379;48.208;-1.518;2023-06-24T02:17:26;54.07;;;50.63;;
31808;SDS011;18379;48.208;-1.518;2023-06-24T02:22:29;52.93;;;49.63;;
31808;SDS011;18379;48.208;-1.518;2023-06-24T02:27:30;53.13;;;49.80;;
31808;SDS011;18379;48.208;-1.518;2023-06-24T02:32:31;52.63;;;49.33;;
31808;SDS011;18379;48.208;-1.518;2023-06-24T02:37:33;53.60;;;50.00;;
31808;SDS011;18379;48.208;-1.518;2023-06-24T02:42:34;53.63;;;50.23;;
31808;SDS011;18379;48.208;-1.518;2023-06-24T02:47:34;53.70;;;50.27;;
31808;SDS011;18379;48.208;-1.518;2023-06-24T02:52:36;53.20;;;49.70;;
31808;SDS011;18379;48.208;-1.518;2023-06-24T02:57:39;53.53;;;50.13;;
31808;SDS011;18379;48.208;-1.518;2023-06-24T03:02:40;54.20;;;50.60;;
31808;SDS011;18379;48.208;-1.518;2023-06-24T03:07:43;53.30;;;49.87;;
31808;SDS011;18379;48.208;-1.518;2023-06-24T03:12:44;54.07;;;50.33;;
31808;SDS011;18379;48.208;-1.518;2023-06-24T03:17:45;53.83;;;50.33;;
31808;SDS011;18379;48.208;-1.518;2023-06-24T03:22:46;53.70;;;50.10;;
31808;SDS011;18379;48.208;-1.518;2023-06-24T03:27:47;54.83;;;50.90;;
31808;SDS011;18379;48.208;-1.518;2023-06-24T03:32:48;53.93;;;50.43;;
31808;SDS011;18379;48.208;-1.518;2023-06-24T03:37:48;53.90;;;50.30;;
31808;SDS011;18379;48.208;-1.518;2023-06-24T03:42:49;54.70;;;51.10;;
31808;SDS011;18379;48.208;-1.518;2023-06-24T03:47:50;54.37;;;50.67;;
31808;SDS011;18379;48.208;-1.518;2023-06-24T03:52:51;55.13;;;51.37;;
31808;SDS011;18379;48.208;-1.518;2023-06-24T03:57:52;53.33;;;49.93;;
31808;SDS011;18379;48.208;-1.518;2023-06-24T04:02:52;54.33;;;50.73;;
31808;SDS011;18379;48.208;-1.518;2023-06-24T04:07:53;54.93;;;51.13;;
31808;SDS011;18379;48.208;-1.518;2023-06-24T04:12:54;55.07;;;51.37;;
31808;SDS011;18379;48.208;-1.518;2023-06-24T04:17:55;54.73;;;50.83;;
31808;SDS011;18379;48.208;-1.518;2023-06-24T04:22:55;55.13;;;51.27;;
31808;SDS011;18379;48.208;-1.518;2023-06-24T04:27:58;55.03;;;51.37;;
31808;SDS011;18379;48.208;-1.518;2023-06-24T04:32:58;56.03;;;52.13;;
31808;SDS011;18379;48.208;-1.518;2023-06-24T04:37:59;55.20;;;51.10;;
31808;SDS011;18379;48.208;-1.518;2023-06-24T04:43:00;54.77;;;50.93;;
31808;SDS011;18379;48.208;-1.518;2023-06-24T04:48:01;54.70;;;51.07;;
31808;SDS011;18379;48.208;-1.518;2023-06-24T04:53:02;55.63;;;51.87;;
31808;SDS011;18379;48.208;-1.518;2023-06-24T04:58:02;54.97;;;51.17;;
31808;SDS011;18379;48.208;-1.518;2023-06-24T05:03:03;55.80;;;52.00;;
31808;SDS011;18379;48.208;-1.518;2023-06-24T05:08:04;56.43;;;52.63;;
31808;SDS011;18379;48.208;-1.518;2023-06-24T05:13:05;55.00;;;51.40;;
31808;SDS011;18379;48.208;-1.518;2023-06-24T05:18:06;56.30;;;52.30;;
31808;SDS011;18379;48.208;-1.518;2023-06-24T05:23:07;55.83;;;51.93;;
31808;SDS011;18379;48.208;-1.518;2023-06-24T05:28:08;55.83;;;51.80;;
31808;SDS011;18379;48.208;-1.518;2023-06-24T05:33:08;55.67;;;51.90;;
31808;SDS011;18379;48.208;-1.518;2023-06-24T05:38:09;55.50;;;51.60;;
31808;SDS011;18379;48.208;-1.518;2023-06-24T05:43:10;55.53;;;51.57;;
31808;SDS011;18379;48.208;-1.518;2023-06-24T05:48:11;55.33;;;51.63;;
31808;SDS011;18379;48.208;-1.518;2023-06-24T05:53:11;55.87;;;51.90;;
31808;SDS011;18379;48.208;-1.518;2023-06-24T05:58:12;55.37;;;51.67;;
31808;SDS011;18379;48.208;-1.518;2023-06-24T06:03:13;55.37;;;51.67;;
31808;SDS011;18379;48.208;-1.518;2023-06-24T06:08:14;55.77;;;51.97;;
31808;SDS011;18379;48.208;-1.518;2023-06-24T06:13:14;56.27;;;52.17;;
31808;SDS011;18379;48.208;-1.518;2023-06-24T06:18:15;54.13;;;50.63;;
31808;SDS011;18379;48.208;-1.518;2023-06-24T06:23:16;55.27;;;51.33;;
31808;SDS011;18379;48.208;-1.518;2023-06-24T06:28:17;54.80;;;50.97;;
31808;SDS011;18379;48.208;-1.518;2023-06-24T06:33:18;55.90;;;52.20;;
31808;SDS011;18379;48.208;-1.518;2023-06-24T06:38:19;55.80;;;51.70;;
31808;SDS011;18379;48.208;-1.518;2023-06-24T06:43:19;55.20;;;51.60;;
31808;SDS011;18379;48.208;-1.518;2023-06-24T06:48:21;55.23;;;51.50;;
31808;SDS011;18379;48.208;-1.518;2023-06-24T06:53:22;55.60;;;51.90;;
31808;SDS011;18379;48.208;-1.518;2023-06-24T06:58:23;56.07;;;52.20;;
31808;SDS011;18379;48.208;-1.518;2023-06-24T07:03:23;55.80;;;52.00;;
31808;SDS011;18379;48.208;-1.518;2023-06-24T07:08:25;56.33;;;52.43;;
31808;SDS011;18379;48.208;-1.518;2023-06-24T07:13:26;56.53;;;52.77;;
31808;SDS011;18379;48.208;-1.518;2023-06-24T07:18:27;56.60;;;52.37;;
31808;SDS011;18379;48.208;-1.518;2023-06-24T07:23:30;57.20;;;53.40;;
31808;SDS011;18379;48.208;-1.518;2023-06-24T07:28:31;56.97;;;53.07;;
31808;SDS011;18379;48.208;-1.518;2023-06-24T07:33:32;57.27;;;53.17;;
31808;SDS011;18379;48.208;-1.518;2023-06-24T07:38:33;57.17;;;53.07;;
31808;SDS011;18379;48.208;-1.518;2023-06-24T07:43:33;57.73;;;53.83;;
31808;SDS011;18379;48.208;-1.518;2023-06-24T07:48:34;57.70;;;53.73;;
31808;SDS011;18379;48.208;-1.518;2023-06-24T07:53:35;57.20;;;53.20;;
31808;SDS011;18379;48.208;-1.518;2023-06-24T07:58:36;56.33;;;52.63;;
31808;SDS011;18379;48.208;-1.518;2023-06-24T08:03:38;57.10;;;53.00;;
31808;SDS011;18379;48.208;-1.518;2023-06-24T08:08:39;57.83;;;53.73;;
31808;SDS011;18379;48.208;-1.518;2023-06-24T08:13:39;56.77;;;52.87;;
31808;SDS011;18379;48.208;-1.518;2023-06-24T08:18:40;56.80;;;52.93;;
31808;SDS011;18379;48.208;-1.518;2023-06-24T08:23:41;56.97;;;53.17;;
31808;SDS011;18379;48.208;-1.518;2023-06-24T08:28:42;57.63;;;53.73;;
31808;SDS011;18379;48.208;-1.518;2023-06-24T08:33:43;57.40;;;53.60;;
31808;SDS011;18379;48.208;-1.518;2023-06-24T08:38:47;57.13;;;53.33;;
31808;SDS011;18379;48.208;-1.518;2023-06-24T08:43:48;57.37;;;53.57;;
31808;SDS011;18379;48.208;-1.518;2023-06-24T08:48:49;57.08;;;53.20;;
31808;SDS011;18379;48.208;-1.518;2023-06-24T08:54:23;56.70;;;52.95;;
31808;SDS011;18379;48.208;-1.518;2023-06-24T08:59:25;56.63;;;52.72;;
31808;SDS011;18379;48.208;-1.518;2023-06-24T09:04:26;57.17;;;53.17;;
31808;SDS011;18379;48.208;-1.518;2023-06-24T09:09:27;57.95;;;53.97;;
31808;SDS011;18379;48.208;-1.518;2023-06-24T09:14:29;57.50;;;53.70;;
31808;SDS011;18379;48.208;-1.518;2023-06-24T09:19:30;57.42;;;53.63;;
31808;SDS011;18379;48.208;-1.518;2023-06-24T09:30:20;57.15;;;53.40;;
31808;SDS011;18379;48.208;-1.518;2023-06-24T09:35:23;58.25;;;54.40;;
31808;SDS011;18379;48.208;-1.518;2023-06-24T09:40:26;56.70;;;52.97;;
31808;SDS011;18379;48.208;-1.518;2023-06-24T09:45:27;56.60;;;52.80;;
31808;SDS011;18379;48.208;-1.518;2023-06-24T09:50:35;58.13;;;54.22;;
31808;SDS011;18379;48.208;-1.518;2023-06-24T09:55:50;57.60;;;53.70;;
31808;SDS011;18379;48.208;-1.518;2023-06-24T10:00:53;57.35;;;53.55;;
31808;SDS011;18379;48.208;-1.518;2023-06-24T10:05:55;57.70;;;53.70;;
31808;SDS011;18379;48.208;-1.518;2023-06-24T10:10:56;58.15;;;54.33;;
31808;SDS011;18379;48.208;-1.518;2023-06-24T10:15:57;57.58;;;53.80;;
31808;SDS011;18379;48.208;-1.518;2023-06-24T10:20:58;58.08;;;54.17;;
31808;SDS011;18379;48.208;-1.518;2023-06-24T10:25:59;58.35;;;54.35;;
31808;SDS011;18379;48.208;-1.518;2023-06-24T10:31:00;57.83;;;54.03;;
31808;SDS011;18379;48.208;-1.518;2023-06-24T10:36:01;58.15;;;54.08;;
31808;SDS011;18379;48.208;-1.518;2023-06-24T10:41:01;59.78;;;55.55;;
31808;SDS011;18379;48.208;-1.518;2023-06-24T10:46:15;59.20;;;55.17;;
31808;SDS011;18379;48.208;-1.518;2023-06-24T10:51:17;58.85;;;54.90;;
31808;SDS011;18379;48.208;-1.518;2023-06-24T10:56:18;59.95;;;55.75;;
31808;SDS011;18379;48.208;-1.518;2023-06-24T11:01:19;59.55;;;55.50;;
31808;SDS011;18379;48.208;-1.518;2023-06-24T11:06:20;58.88;;;54.78;;
31808;SDS011;18379;48.208;-1.518;2023-06-24T11:11:21;59.40;;;55.15;;
31808;SDS011;18379;48.208;-1.518;2023-06-24T11:16:22;58.95;;;54.90;;
31808;SDS011;18379;48.208;-1.518;2023-06-24T11:21:27;58.63;;;54.63;;
31808;SDS011;18379;48.208;-1.518;2023-06-24T11:26:33;59.20;;;55.17;;
31808;SDS011;18379;48.208;-1.518;2023-06-24T11:31:34;59.97;;;55.72;;
31808;SDS011;18379;48.208;-1.518;2023-06-24T11:36:35;58.78;;;54.85;;
31808;SDS011;18379;48.208;-1.518;2023-06-24T11:41:36;58.78;;;54.88;;
31808;SDS011;18379;48.208;-1.518;2023-06-24T11:46:39;59.22;;;55.03;;
31808;SDS011;18379;48.208;-1.518;2023-06-24T11:51:47;59.55;;;55.35;;
31808;SDS011;18379;48.208;-1.518;2023-06-24T11:56:50;59.25;;;55.25;;
31808;SDS011;18379;48.208;-1.518;2023-06-24T12:01:58;59.67;;;55.63;;
31808;SDS011;18379;48.208;-1.518;2023-06-24T12:07:03;59.53;;;55.42;;
31808;SDS011;18379;48.208;-1.518;2023-06-24T12:12:04;59.15;;;55.22;;
31808;SDS011;18379;48.208;-1.518;2023-06-24T12:17:06;60.50;;;56.45;;
31808;SDS011;18379;48.208;-1.518;2023-06-24T12:22:07;59.13;;;55.10;;
31808;SDS011;18379;48.208;-1.518;2023-06-24T12:27:09;60.35;;;56.15;;
31808;SDS011;18379;48.208;-1.518;2023-06-24T12:32:10;59.63;;;55.42;;
31808;SDS011;18379;48.208;-1.518;2023-06-24T12:37:11;59.35;;;55.33;;
31808;SDS011;18379;48.208;-1.518;2023-06-24T12:42:12;59.63;;;55.58;;
31808;SDS011;18379;48.208;-1.518;2023-06-24T12:47:13;59.40;;;55.40;;
31808;SDS011;18379;48.208;-1.518;2023-06-24T12:52:14;59.63;;;55.58;;
31808;SDS011;18379;48.208;-1.518;2023-06-24T12:57:15;60.20;;;56.10;;
31808;SDS011;18379;48.208;-1.518;2023-06-24T13:02:16;60.95;;;56.75;;
31808;SDS011;18379;48.208;-1.518;2023-06-24T13:07:16;60.05;;;55.85;;
31808;SDS011;18379;48.208;-1.518;2023-06-24T13:12:17;61.55;;;57.15;;
31808;SDS011;18379;48.208;-1.518;2023-06-24T13:17:18;59.88;;;55.78;;
31808;SDS011;18379;48.208;-1.518;2023-06-24T13:22:19;61.22;;;57.00;;
31808;SDS011;18379;48.208;-1.518;2023-06-24T13:27:19;59.85;;;55.65;;
31808;SDS011;18379;48.208;-1.518;2023-06-24T13:32:20;60.08;;;55.97;;
31808;SDS011;18379;48.208;-1.518;2023-06-24T13:37:21;61.22;;;56.85;;
31808;SDS011;18379;48.208;-1.518;2023-06-24T13:42:22;60.67;;;56.45;;
31808;SDS011;18379;48.208;-1.518;2023-06-24T13:47:23;60.85;;;56.63;;
31808;SDS011;18379;48.208;-1.518;2023-06-24T13:52:24;60.15;;;56.05;;
31808;SDS011;18379;48.208;-1.518;2023-06-24T13:57:26;60.60;;;56.50;;
31808;SDS011;18379;48.208;-1.518;2023-06-24T14:02:27;60.70;;;56.50;;
31808;SDS011;18379;48.208;-1.518;2023-06-24T14:07:28;59.97;;;55.88;;
31808;SDS011;18379;48.208;-1.518;2023-06-24T14:12:29;60.70;;;56.60;;
31808;SDS011;18379;48.208;-1.518;2023-06-24T14:17:30;61.17;;;57.05;;
31808;SDS011;18379;48.208;-1.518;2023-06-24T14:22:32;61.30;;;56.95;;
31808;SDS011;18379;48.208;-1.518;2023-06-24T14:27:34;60.58;;;56.47;;
31808;SDS011;18379;48.208;-1.518;2023-06-24T14:32:35;61.03;;;56.92;;
31808;SDS011;18379;48.208;-1.518;2023-06-24T14:37:37;61.85;;;57.58;;
31808;SDS011;18379;48.208;-1.518;2023-06-24T14:42:38;60.97;;;56.78;;
31808;SDS011;18379;48.208;-1.518;2023-06-24T14:47:43;61.47;;;57.28;;
31808;SDS011;18379;48.208;-1.518;2023-06-24T14:53:11;61.72;;;57.53;;
31808;SDS011;18379;48.208;-1.518;2023-06-24T14:58:12;61.25;;;56.83;;
31808;SDS011;18379;48.208;-1.518;2023-06-24T15:03:12;61.45;;;57.25;;
31808;SDS011;18379;48.208;-1.518;2023-06-24T15:08:13;61.67;;;57.38;;
31808;SDS011;18379;48.208;-1.518;2023-06-24T15:13:14;61.85;;;57.58;;
31808;SDS011;18379;48.208;-1.518;2023-06-24T15:18:27;62.83;;;58.38;;
31808;SDS011;18379;48.208;-1.518;2023-06-24T15:24:12;62.25;;;57.95;;
31808;SDS011;18379;48.208;-1.518;2023-06-24T15:29:12;61.35;;;57.03;;
31808;SDS011;18379;48.208;-1.518;2023-06-24T15:34:13;62.10;;;57.83;;
31808;SDS011;18379;48.208;-1.518;2023-06-24T15:39:14;62.45;;;58.13;;
31808;SDS011;18379;48.208;-1.518;2023-06-24T15:44:15;62.90;;;58.50;;
31808;SDS011;18379;48.208;-1.518;2023-06-24T15:49:16;63.10;;;58.70;;
31808;SDS011;18379;48.208;-1.518;2023-06-24T15:54:17;62.42;;;58.08;;
31808;SDS011;18379;48.208;-1.518;2023-06-24T15:59:26;62.72;;;58.13;;
31808;SDS011;18379;48.208;-1.518;2023-06-24T16:04:27;63.55;;;59.13;;
31808;SDS011;18379;48.208;-1.518;2023-06-24T16:09:28;62.65;;;58.22;;
31808;SDS011;18379;48.208;-1.518;2023-06-24T16:14:29;64.07;;;59.67;;
31808;SDS011;18379;48.208;-1.518;2023-06-24T16:19:30;63.92;;;59.05;;
31808;SDS011;18379;48.208;-1.518;2023-06-24T16:24:30;62.67;;;58.25;;
31808;SDS011;18379;48.208;-1.518;2023-06-24T16:29:31;63.72;;;59.22;;
31808;SDS011;18379;48.208;-1.518;2023-06-24T16:34:32;63.63;;;59.03;;
31808;SDS011;18379;48.208;-1.518;2023-06-24T16:39:33;63.55;;;59.08;;
31808;SDS011;18379;48.208;-1.518;2023-06-24T16:44:34;64.18;;;59.58;;
31808;SDS011;18379;48.208;-1.518;2023-06-24T16:49:37;64.47;;;59.97;;
31808;SDS011;18379;48.208;-1.518;2023-06-24T16:54:38;63.67;;;59.17;;
31808;SDS011;18379;48.208;-1.518;2023-06-24T16:59:38;64.03;;;59.42;;
31808;SDS011;18379;48.208;-1.518;2023-06-24T17:04:39;63.45;;;58.92;;
31808;SDS011;18379;48.208;-1.518;2023-06-24T17:09:40;63.08;;;58.47;;
31808;SDS011;18379;48.208;-1.518;2023-06-24T17:14:41;62.85;;;58.17;;
31808;SDS011;18379;48.208;-1.518;2023-06-24T17:19:41;64.35;;;59.75;;
31808;SDS011;18379;48.208;-1.518;2023-06-24T17:24:42;62.75;;;58.15;;
31808;SDS011;18379;48.208;-1.518;2023-06-24T17:29:43;64.07;;;59.15;;
31808;SDS011;18379;48.208;-1.518;2023-06-24T17:34:44;63.25;;;58.65;;
31808;SDS011;18379;48.208;-1.518;2023-06-24T17:39:44;63.05;;;58.53;;
31808;SDS011;18379;48.208;-1.518;2023-06-24T17:44:45;63.08;;;58.67;;
31808;SDS011;18379;48.208;-1.518;2023-06-24T17:49:46;62.92;;;58.42;;
31808;SDS011;18379;48.208;-1.518;2023-06-24T17:54:47;63.20;;;58.70;;
31808;SDS011;18379;48.208;-1.518;2023-06-24T17:59:48;62.60;;;58.20;;
31808;SDS011;18379;48.208;-1.518;2023-06-24T18:04:48;62.17;;;57.78;;
31808;SDS011;18379;48.208;-1.518;2023-06-24T18:09:49;62.63;;;58.22;;
31808;SDS011;18379;48.208;-1.518;2023-06-24T18:14:51;62.33;;;57.83;;
31808;SDS011;18379;48.208;-1.518;2023-06-24T18:19:51;64.13;;;59.42;;
31808;SDS011;18379;48.208;-1.518;2023-06-24T18:24:52;63.60;;;58.90;;
31808;SDS011;18379;48.208;-1.518;2023-06-24T18:29:53;64.22;;;59.45;;
31808;SDS011;18379;48.208;-1.518;2023-06-24T18:34:54;63.33;;;58.72;;
31808;SDS011;18379;48.208;-1.518;2023-06-24T18:39:57;62.58;;;58.08;;
31808;SDS011;18379;48.208;-1.518;2023-06-24T18:44:58;61.03;;;56.75;;
31808;SDS011;18379;48.208;-1.518;2023-06-24T18:49:59;61.65;;;57.20;;
31808;SDS011;18379;48.208;-1.518;2023-06-24T18:55:00;61.15;;;56.85;;
31808;SDS011;18379;48.208;-1.518;2023-06-24T19:00:02;62.63;;;58.03;;
31808;SDS011;18379;48.208;-1.518;2023-06-24T19:05:03;61.05;;;56.75;;
31808;SDS011;18379;48.208;-1.518;2023-06-24T19:10:04;60.92;;;56.65;;
31808;SDS011;18379;48.208;-1.518;2023-06-24T19:15:05;61.28;;;56.97;;
31808;SDS011;18379;48.208;-1.518;2023-06-24T19:20:07;61.30;;;56.97;;
31808;SDS011;18379;48.208;-1.518;2023-06-24T19:25:10;61.13;;;56.78;;
31808;SDS011;18379;48.208;-1.518;2023-06-24T19:30:11;60.25;;;56.05;;
31808;SDS011;18379;48.208;-1.518;2023-06-24T19:35:12;60.45;;;56.25;;
31808;SDS011;18379;48.208;-1.518;2023-06-24T19:40:13;66.93;;;61.67;;
31808;SDS011;18379;48.208;-1.518;2023-06-24T19:45:14;145.65;;;122.88;;
31808;SDS011;18379;48.208;-1.518;2023-06-24T19:50:15;134.73;;;119.72;;
31808;SDS011;18379;48.208;-1.518;2023-06-24T19:55:16;97.50;;;88.00;;
31808;SDS011;18379;48.208;-1.518;2023-06-24T20:00:17;88.22;;;79.97;;
31808;SDS011;18379;48.208;-1.518;2023-06-24T20:05:21;67.35;;;62.05;;
31808;SDS011;18379;48.208;-1.518;2023-06-24T20:10:25;62.33;;;57.75;;
31808;SDS011;18379;48.208;-1.518;2023-06-24T20:15:25;63.03;;;58.33;;
31808;SDS011;18379;48.208;-1.518;2023-06-24T20:20:26;60.92;;;56.47;;
31808;SDS011;18379;48.208;-1.518;2023-06-24T20:25:29;60.25;;;56.03;;
31808;SDS011;18379;48.208;-1.518;2023-06-24T20:30:29;60.38;;;56.13;;
31808;SDS011;18379;48.208;-1.518;2023-06-24T20:35:30;60.03;;;55.83;;
31808;SDS011;18379;48.208;-1.518;2023-06-24T20:40:31;60.17;;;55.88;;
31808;SDS011;18379;48.208;-1.518;2023-06-24T20:45:32;60.47;;;56.22;;
31808;SDS011;18379;48.208;-1.518;2023-06-24T20:50:33;61.13;;;56.72;;
31808;SDS011;18379;48.208;-1.518;2023-06-24T20:55:34;61.70;;;57.22;;
31808;SDS011;18379;48.208;-1.518;2023-06-24T21:00:34;62.70;;;58.20;;
31808;SDS011;18379;48.208;-1.518;2023-06-24T21:05:35;63.85;;;59.00;;
31808;SDS011;18379;48.208;-1.518;2023-06-24T21:10:36;63.42;;;58.72;;
31808;SDS011;18379;48.208;-1.518;2023-06-24T21:15:37;61.97;;;57.45;;
31808;SDS011;18379;48.208;-1.518;2023-06-24T21:20:37;61.22;;;56.83;;
31808;SDS011;18379;48.208;-1.518;2023-06-24T21:25:46;60.55;;;56.25;;
31808;SDS011;18379;48.208;-1.518;2023-06-24T21:30:46;62.03;;;57.42;;
31808;SDS011;18379;48.208;-1.518;2023-06-24T21:35:47;60.65;;;56.25;;
31808;SDS011;18379;48.208;-1.518;2023-06-24T21:40:48;59.60;;;55.30;;
31808;SDS011;18379;48.208;-1.518;2023-06-24T21:45:49;59.77;;;55.57;;
31808;SDS011;18379;48.208;-1.518;2023-06-24T21:50:57;59.30;;;55.20;;
31808;SDS011;18379;48.208;-1.518;2023-06-24T21:56:01;60.13;;;55.93;;
31808;SDS011;18379;48.208;-1.518;2023-06-24T22:01:01;59.30;;;55.10;;
31808;SDS011;18379;48.208;-1.518;2023-06-24T22:06:03;58.37;;;54.47;;
31808;SDS011;18379;48.208;-1.518;2023-06-24T22:11:04;59.07;;;55.00;;
31808;SDS011;18379;48.208;-1.518;2023-06-24T22:16:05;59.13;;;54.93;;
31808;SDS011;18379;48.208;-1.518;2023-06-24T22:21:05;58.63;;;54.53;;
31808;SDS011;18379;48.208;-1.518;2023-06-24T22:26:06;59.40;;;55.33;;
31808;SDS011;18379;48.208;-1.518;2023-06-24T22:31:07;58.37;;;54.37;;
31808;SDS011;18379;48.208;-1.518;2023-06-24T22:36:08;58.23;;;54.33;;
31808;SDS011;18379;48.208;-1.518;2023-06-24T22:41:08;59.33;;;55.33;;
31808;SDS011;18379;48.208;-1.518;2023-06-24T22:46:09;58.67;;;54.57;;
31808;SDS011;18379;48.208;-1.518;2023-06-24T22:51:10;58.53;;;54.43;;
31808;SDS011;18379;48.208;-1.518;2023-06-24T22:56:11;59.10;;;54.90;;
31808;SDS011;18379;48.208;-1.518;2023-06-24T23:06:14;58.77;;;54.63;;
31808;SDS011;18379;48.208;-1.518;2023-06-24T23:11:15;57.80;;;53.90;;
31808;SDS011;18379;48.208;-1.518;2023-06-24T23:16:17;58.47;;;54.43;;
31808;SDS011;18379;48.208;-1.518;2023-06-24T23:21:18;58.03;;;54.13;;
31808;SDS011;18379;48.208;-1.518;2023-06-24T23:26:19;58.83;;;54.57;;
31808;SDS011;18379;48.208;-1.518;2023-06-24T23:31:21;58.20;;;54.07;;
31808;SDS011;18379;48.208;-1.518;2023-06-24T23:36:23;57.80;;;53.77;;
31808;SDS011;18379;48.208;-1.518;2023-06-24T23:41:27;58.43;;;54.27;;
31808;SDS011;18379;48.208;-1.518;2023-06-24T23:46:28;57.87;;;53.97;;
31808;SDS011;18379;48.208;-1.518;2023-06-24T23:51:29;58.23;;;54.10;;
31808;SDS011;18379;48.208;-1.518;2023-06-24T23:56:30;58.33;;;54.03;;
